Time;durP1;ratioP1;P1;durP2;ratioP2;P2;SDS_P1;SDS_P2;PMS_P1;PMS_P2;Temp;Humidity;BMP_temperature;BMP_pressure;BME280_temperature;BME280_humidity;BME280_pressure;Samples;Min_cycle;Max_cycle;Signal;HPM_P1;HPM_P2
2022/08/10 00:00:31;;;;;;;8.52;6.50;;;15.50;99.90;;;;;;4986538;28;20045;-91
2022/08/10 00:02:59;;;;;;;9.38;6.50;;;15.50;99.90;;;;;;4985481;28;20239;-93
2022/08/10 00:05:25;;;;;;;9.13;6.95;;;15.50;99.90;;;;;;4988229;28;20401;-92
2022/08/10 00:07:52;;;;;;;8.75;6.80;;;15.50;99.90;;;;;;4989208;28;20440;-91
2022/08/10 00:10:20;;;;;;;8.95;6.93;;;15.40;99.90;;;;;;4990665;28;20047;-92
2022/08/10 00:12:46;;;;;;;9.88;7.10;;;15.40;99.90;;;;;;4990072;28;20061;-91
2022/08/10 00:15:14;;;;;;;10.77;7.05;;;15.40;99.90;;;;;;4989734;28;20046;-92
2022/08/10 00:17:40;;;;;;;9.73;7.53;;;15.40;99.90;;;;;;4986922;28;20050;-92
2022/08/10 00:20:06;;;;;;;9.00;6.90;;;15.30;99.90;;;;;;4983857;28;20038;-92
2022/08/10 00:22:32;;;;;;;9.90;7.07;;;15.30;99.90;;;;;;4987941;28;20060;-93
2022/08/10 00:24:58;;;;;;;10.68;7.53;;;15.30;99.90;;;;;;4986818;28;20047;-93
2022/08/10 00:27:24;;;;;;;9.73;6.88;;;15.30;99.90;;;;;;4988249;28;20050;-93
2022/08/10 00:29:50;;;;;;;10.35;7.47;;;15.30;99.90;;;;;;4985577;28;20133;-91
2022/08/10 00:32:16;;;;;;;9.85;7.40;;;15.30;99.90;;;;;;4986572;28;20167;-92
2022/08/10 00:34:41;;;;;;;10.30;7.65;;;15.30;99.90;;;;;;4988908;28;20589;-90
2022/08/10 00:37:07;;;;;;;10.45;7.82;;;15.30;99.90;;;;;;4990066;28;20130;-92
2022/08/10 00:39:32;;;;;;;9.50;7.70;;;15.30;99.90;;;;;;4990221;28;20057;-92
2022/08/10 00:41:58;;;;;;;10.23;7.63;;;15.30;99.90;;;;;;4989917;28;20042;-90
2022/08/10 00:44:24;;;;;;;10.45;7.65;;;15.30;99.90;;;;;;4995145;28;20054;-90
2022/08/10 00:46:49;;;;;;;9.77;7.75;;;15.30;99.90;;;;;;4992355;28;20046;-90
2022/08/10 00:49:15;;;;;;;11.43;8.18;;;15.30;99.90;;;;;;4990409;28;20109;-91
2022/08/10 00:51:41;;;;;;;10.40;7.90;;;15.30;99.90;;;;;;4989511;28;20046;-91
2022/08/10 00:54:07;;;;;;;11.38;7.65;;;15.30;99.90;;;;;;4986186;28;20478;-92
2022/08/10 00:56:34;;;;;;;10.30;8.07;;;15.30;99.90;;;;;;4990598;28;20073;-90
2022/08/10 00:59:00;;;;;;;10.60;8.20;;;15.30;99.90;;;;;;4989939;28;20043;-90
2022/08/10 01:01:25;;;;;;;11.55;9.30;;;15.30;99.90;;;;;;4989657;28;20049;-89
2022/08/10 01:03:51;;;;;;;9.73;7.85;;;15.30;99.90;;;;;;4988305;28;20042;-90
2022/08/10 01:06:44;;;;;;;10.80;7.93;;;15.30;99.90;;;;;;4989583;28;20057;-92
2022/08/10 01:09:20;;;;;;;11.77;8.43;;;15.30;99.90;;;;;;4988913;28;20057;-90
2022/08/10 01:11:54;;;;;;;11.38;8.85;;;15.20;99.90;;;;;;4988193;28;20088;-91
2022/08/10 01:14:31;;;;;;;11.50;8.68;;;15.30;99.90;;;;;;4984928;28;20065;-92
2022/08/10 01:17:10;;;;;;;10.60;8.40;;;15.30;99.90;;;;;;4988032;28;20126;-91
2022/08/10 01:19:54;;;;;;;10.68;8.80;;;15.30;99.90;;;;;;4989164;28;20042;-91
2022/08/10 01:22:38;;;;;;;11.48;9.02;;;15.30;99.90;;;;;;4989832;28;20113;-91
2022/08/10 01:25:20;;;;;;;11.65;8.75;;;15.20;99.90;;;;;;4971167;28;20089;-93
2022/08/10 01:28:07;;;;;;;11.75;9.65;;;15.20;99.90;;;;;;4988267;28;20058;-92
2022/08/10 01:30:35;;;;;;;13.10;9.35;;;15.20;99.90;;;;;;4990283;28;20058;-91
2022/08/10 01:33:08;;;;;;;12.50;9.57;;;15.20;99.90;;;;;;4987699;28;20057;-92
2022/08/10 01:35:40;;;;;;;12.48;9.40;;;15.20;99.90;;;;;;4989141;28;20046;-91
2022/08/10 01:38:08;;;;;;;;;;;15.20;99.90;;;;;;4992790;28;20065;-91
2022/08/10 01:40:38;;;;;;;11.55;8.75;;;15.00;99.90;;;;;;5000306;28;20417;-91
2022/08/10 01:43:08;;;;;;;12.30;9.55;;;15.10;99.90;;;;;;4987653;28;20038;-90
2022/08/10 01:45:38;;;;;;;12.97;9.50;;;15.00;99.90;;;;;;4989826;28;20054;-90
2022/08/10 01:50:58;;;;;;;11.38;8.73;;;15.10;99.90;;;;;;4985215;28;20096;-90
2022/08/10 01:53:50;;;;;;;11.73;8.45;;;15.10;99.90;;;;;;4970368;28;20124;-92
2022/08/10 01:56:19;;;;;;;11.55;9.15;;;15.10;99.90;;;;;;4988301;28;20053;-90
2022/08/10 01:58:52;;;;;;;10.70;8.63;;;15.00;99.90;;;;;;4986993;28;20054;-92
2022/08/10 02:01:22;;;;;;;11.40;9.15;;;15.00;99.90;;;;;;4988230;28;20046;-92
2022/08/10 02:03:51;;;;;;;12.13;9.02;;;15.00;99.90;;;;;;4986821;28;20384;-91
2022/08/10 02:06:19;;;;;;;12.60;9.93;;;15.00;99.90;;;;;;4989095;28;20431;-91
2022/08/10 02:08:46;;;;;;;11.68;9.23;;;15.00;99.90;;;;;;4987067;28;20476;-90
2022/08/10 02:11:14;;;;;;;13.25;10.18;;;14.90;99.90;;;;;;4988415;28;20125;-92
2022/08/10 02:13:41;;;;;;;12.85;9.77;;;15.00;99.90;;;;;;4983428;28;20165;-90
2022/08/10 02:16:09;;;;;;;11.57;9.27;;;15.00;99.90;;;;;;4971057;28;20058;-92
2022/08/10 02:18:35;;;;;;;15.02;10.23;;;15.00;99.90;;;;;;4989419;28;20132;-91
2022/08/10 02:21:03;;;;;;;12.40;10.60;;;15.00;99.90;;;;;;4986876;28;20049;-89
2022/08/10 02:23:32;;;;;;;14.05;10.85;;;15.00;99.90;;;;;;4984528;28;20398;-91
2022/08/10 02:26:00;;;;;;;13.10;10.23;;;15.00;99.90;;;;;;4987866;28;20055;-92
2022/08/10 02:28:28;;;;;;;13.00;10.18;;;15.00;99.90;;;;;;4987211;28;20098;-90
2022/08/10 02:30:55;;;;;;;14.85;11.05;;;15.00;99.90;;;;;;4986457;28;20042;-90
2022/08/10 02:33:23;;;;;;;13.75;10.82;;;15.00;99.90;;;;;;4989029;28;20466;-93
2022/08/10 02:35:52;;;;;;;13.57;10.50;;;15.10;99.90;;;;;;4988743;28;20133;-92
2022/08/10 02:38:24;;;;;;;13.98;10.57;;;15.00;99.90;;;;;;4970118;28;20046;-91
2022/08/10 02:40:57;;;;;;;13.65;10.38;;;15.10;99.90;;;;;;4986574;28;20038;-89
2022/08/10 02:43:34;;;;;;;15.07;11.07;;;15.00;99.90;;;;;;4970974;28;20316;-92
2022/08/10 02:46:06;;;;;;;12.75;10.57;;;15.00;99.90;;;;;;4983132;28;20043;-91
2022/08/10 02:48:57;;;;;;;;;;;15.00;99.90;;;;;;4971530;28;20054;-93
2022/08/10 02:51:38;;;;;;;14.10;11.00;;;14.90;99.90;;;;;;4982923;28;19961;-92
2022/08/10 02:54:07;;;;;;;16.03;11.23;;;14.90;99.90;;;;;;4965890;28;20169;-91
2022/08/10 02:56:52;;;;;;;12.75;10.70;;;14.90;99.90;;;;;;4986854;28;20384;-92
2022/08/10 02:59:28;;;;;;;15.50;11.30;;;14.90;99.90;;;;;;4967337;28;20046;-90
2022/08/10 03:02:00;;;;;;;13.95;11.32;;;14.90;99.90;;;;;;4987009;28;20045;-90
2022/08/10 03:04:35;;;;;;;14.05;11.63;;;14.80;99.90;;;;;;4986069;28;20487;-90
2022/08/10 03:07:04;;;;;;;13.10;10.75;;;14.80;99.90;;;;;;4986116;28;20360;-91
2022/08/10 03:09:33;;;;;;;15.20;10.95;;;14.80;99.90;;;;;;4987640;28;20046;-92
2022/08/10 03:12:00;;;;;;;13.43;11.25;;;14.70;99.90;;;;;;4985561;28;20050;-92
2022/08/10 03:14:27;;;;;;;13.27;11.15;;;14.70;99.90;;;;;;4989351;28;20128;-90
2022/08/10 03:16:55;;;;;;;13.80;11.27;;;14.80;99.90;;;;;;4985988;28;20506;-90
2022/08/10 03:19:23;;;;;;;13.60;10.82;;;14.80;99.90;;;;;;4986238;28;20104;-91
2022/08/10 03:21:50;;;;;;;14.45;10.93;;;14.80;99.90;;;;;;4987388;28;20065;-92
2022/08/10 03:24:21;;;;;;;14.95;11.02;;;14.80;99.90;;;;;;4986817;28;20053;-94
2022/08/10 03:26:50;;;;;;;;;;;14.80;99.90;;;;;;4987379;28;20100;-93
2022/08/10 03:29:18;;;;;;;14.88;10.93;;;14.70;99.90;;;;;;4970230;28;19975;-93
2022/08/10 03:31:46;;;;;;;13.18;10.95;;;14.70;99.90;;;;;;4986911;28;20096;-91
2022/08/10 03:34:14;;;;;;;13.85;10.98;;;14.70;99.90;;;;;;4986325;28;20038;-92
2022/08/10 03:36:39;;;;;;;16.52;12.00;;;14.70;99.90;;;;;;4988027;28;20058;-93
2022/08/10 03:39:05;;;;;;;15.07;11.80;;;14.70;99.90;;;;;;4987755;28;20046;-93
2022/08/10 03:41:47;;;;;;;16.23;11.57;;;14.70;99.90;;;;;;4988459;28;20054;-93
2022/08/10 03:44:17;;;;;;;15.52;12.13;;;14.60;99.90;;;;;;4997671;28;20106;-91
2022/08/10 03:46:44;;;;;;;17.00;12.17;;;14.60;99.90;;;;;;4989689;28;20085;-91
2022/08/10 03:49:11;;;;;;;15.48;12.38;;;14.60;99.90;;;;;;4986613;28;20339;-91
2022/08/10 03:51:38;;;;;;;16.52;12.02;;;14.60;99.90;;;;;;4970894;28;20042;-92
2022/08/10 03:54:04;;;;;;;15.77;12.63;;;14.60;99.90;;;;;;4986695;28;20475;-93
2022/08/10 03:56:30;;;;;;;16.77;12.35;;;14.60;99.90;;;;;;4987459;28;20408;-93
2022/08/10 03:58:56;;;;;;;16.27;12.80;;;14.60;99.90;;;;;;4987805;28;20414;-92
2022/08/10 04:01:22;;;;;;;17.00;13.50;;;14.60;99.90;;;;;;4986199;28;20093;-91
2022/08/10 04:03:48;;;;;;;15.90;12.38;;;14.60;99.90;;;;;;4970207;28;20050;-94
2022/08/10 04:06:14;;;;;;;17.45;12.63;;;14.60;99.90;;;;;;4985967;28;20053;-94
2022/08/10 04:08:41;;;;;;;16.90;12.77;;;14.60;99.90;;;;;;4986508;28;20047;-93
2022/08/10 04:11:08;;;;;;;18.85;13.35;;;14.60;99.90;;;;;;4969374;28;20042;-92
2022/08/10 04:13:34;;;;;;;15.77;12.48;;;14.70;99.90;;;;;;4988233;28;20054;-92
2022/08/10 04:16:00;;;;;;;16.52;12.30;;;14.70;99.90;;;;;;4971572;28;20053;-92
2022/08/10 04:18:25;;;;;;;16.02;12.77;;;14.60;99.90;;;;;;4991600;28;20398;-93
2022/08/10 04:21:11;;;;;;;15.93;12.98;;;14.70;99.90;;;;;;4991325;28;20049;-93
2022/08/10 04:23:42;;;;;;;15.18;12.20;;;14.60;99.90;;;;;;4974020;28;20096;-93
2022/08/10 04:26:09;;;;;;;15.63;12.43;;;14.70;99.90;;;;;;4989997;28;20483;-92
2022/08/10 04:28:35;;;;;;;15.35;12.18;;;14.70;99.90;;;;;;4990708;28;20089;-93
2022/08/10 04:31:03;;;;;;;17.90;12.70;;;14.70;99.90;;;;;;4989891;28;20069;-93
2022/08/10 04:33:31;;;;;;;17.52;12.65;;;14.70;99.90;;;;;;4990197;28;20042;-91
2022/08/10 04:35:58;;;;;;;16.52;12.68;;;14.80;99.90;;;;;;4989179;28;20092;-92
2022/08/10 04:38:25;;;;;;;17.13;13.20;;;14.80;99.90;;;;;;4991605;28;20066;-92
2022/08/10 04:40:51;;;;;;;17.40;12.70;;;14.80;99.90;;;;;;4990028;28;20439;-91
2022/08/10 04:43:17;;;;;;;16.65;11.95;;;14.80;99.90;;;;;;4974789;28;20053;-92
2022/08/10 04:45:43;;;;;;;14.05;11.48;;;14.80;99.90;;;;;;4974291;28;20046;-92
2022/08/10 04:48:09;;;;;;;16.33;12.02;;;14.80;99.90;;;;;;4990537;28;20344;-93
2022/08/10 04:50:34;;;;;;;16.17;12.15;;;14.80;99.90;;;;;;4991017;28;20042;-94
2022/08/10 04:53:00;;;;;;;15.80;12.07;;;14.90;99.90;;;;;;4973337;28;20054;-92
2022/08/10 04:55:26;;;;;;;17.27;12.68;;;14.90;99.90;;;;;;4992090;28;20035;-92
2022/08/10 04:57:52;;;;;;;17.40;11.77;;;14.90;99.90;;;;;;4990535;28;20045;-93
2022/08/10 05:00:17;;;;;;;17.15;12.32;;;15.00;99.90;;;;;;4990552;28;20050;-92
2022/08/10 05:02:43;;;;;;;15.43;12.38;;;15.00;99.90;;;;;;4990540;28;20046;-91
2022/08/10 05:05:09;;;;;;;16.17;12.65;;;15.10;99.90;;;;;;4991721;28;20045;-93
2022/08/10 05:07:34;;;;;;;14.82;11.55;;;15.20;99.90;;;;;;4991995;28;20046;-94
2022/08/10 05:10:03;;;;;;;17.15;12.80;;;15.20;99.90;;;;;;4974165;28;20035;-94
2022/08/10 05:12:29;;;;;;;16.48;11.98;;;15.30;99.90;;;;;;4991547;28;20092;-94
2022/08/10 05:14:55;;;;;;;16.17;12.98;;;15.40;99.90;;;;;;4974760;28;20058;-93
2022/08/10 05:17:21;;;;;;;14.25;11.60;;;15.40;99.90;;;;;;4974769;28;20042;-94
2022/08/10 05:19:47;;;;;;;15.90;12.25;;;15.40;99.90;;;;;;4990316;28;20093;-95
2022/08/10 05:22:12;;;;;;;17.05;12.70;;;15.60;99.90;;;;;;4991935;28;20460;-93
2022/08/10 05:24:38;;;;;;;16.02;11.63;;;15.60;99.90;;;;;;4974580;28;20081;-93
2022/08/10 05:27:05;;;;;;;14.57;11.40;;;15.70;99.90;;;;;;4988436;28;20081;-91
2022/08/10 05:29:31;;;;;;;14.55;11.43;;;15.80;99.90;;;;;;4972908;28;20057;-93
2022/08/10 05:31:58;;;;;;;13.13;11.23;;;15.90;99.90;;;;;;4987765;28;20046;-90
2022/08/10 05:34:26;;;;;;;15.07;11.82;;;15.90;99.90;;;;;;4989298;28;20101;-93
2022/08/10 05:36:56;;;;;;;14.20;11.85;;;16.00;99.90;;;;;;4987997;28;20133;-93
2022/08/10 05:39:22;;;;;;;14.98;10.93;;;16.10;99.90;;;;;;4989660;28;20165;-91
2022/08/10 05:41:52;;;;;;;13.82;11.13;;;16.20;99.90;;;;;;4985075;28;20097;-92
2022/08/10 05:44:20;;;;;;;14.75;11.32;;;16.20;99.90;;;;;;4991208;28;20128;-90
2022/08/10 05:46:45;;;;;;;13.95;10.75;;;16.30;99.90;;;;;;4997739;28;20046;-94
2022/08/10 05:49:11;;;;;;;15.30;11.02;;;16.40;99.90;;;;;;4997040;28;20084;-91
2022/08/10 05:51:36;;;;;;;13.63;10.35;;;16.50;99.90;;;;;;4991659;28;20042;-93
2022/08/10 05:54:03;;;;;;;14.15;10.77;;;16.60;99.90;;;;;;4989330;28;20595;-93
2022/08/10 05:56:30;;;;;;;13.70;10.27;;;16.70;99.90;;;;;;4989698;28;20046;-91
2022/08/10 05:58:56;;;;;;;13.52;10.48;;;16.80;99.90;;;;;;4989767;28;20057;-92
2022/08/10 06:01:27;;;;;;;14.55;10.50;;;16.80;99.90;;;;;;4973086;28;20042;-93
2022/08/10 06:03:57;;;;;;;13.98;10.80;;;17.00;99.90;;;;;;4989190;28;20480;-93
2022/08/10 06:06:26;;;;;;;12.50;9.88;;;17.10;99.90;;;;;;4989092;28;20042;-93
2022/08/10 06:08:54;;;;;;;12.75;9.50;;;17.20;99.90;;;;;;4987694;28;20070;-93
2022/08/10 06:11:21;;;;;;;10.93;9.00;;;17.30;99.90;;;;;;4971926;28;20042;-92
2022/08/10 06:16:33;;;;;;;13.07;9.10;;;17.40;99.90;;;;;;4985080;28;20381;-91
2022/08/10 06:19:00;;;;;;;12.60;9.32;;;17.50;99.90;;;;;;4987404;28;20072;-91
2022/08/10 06:21:27;;;;;;;13.75;9.52;;;17.60;99.90;;;;;;4991328;28;20038;-94
2022/08/10 06:23:55;;;;;;;11.73;8.93;;;17.70;99.90;;;;;;4985151;28;20061;-90
2022/08/10 06:26:20;;;;;;;12.07;9.00;;;17.80;99.90;;;;;;4973530;28;20050;-86
2022/08/10 06:28:55;;;;;;;11.77;7.97;;;17.80;99.90;;;;;;4971946;28;20057;-90
2022/08/10 06:31:22;;;;;;;11.50;8.30;;;17.90;99.90;;;;;;4987442;28;20053;-91
2022/08/10 06:33:50;;;;;;;10.75;7.65;;;18.00;99.90;;;;;;4987439;28;20050;-89
2022/08/10 06:36:17;;;;;;;11.27;7.47;;;18.10;99.90;;;;;;4986856;28;20073;-88
2022/08/10 06:38:44;;;;;;;11.48;7.60;;;18.20;99.90;;;;;;4984883;28;20073;-90
2022/08/10 06:41:17;;;;;;;11.07;7.75;;;18.20;99.90;;;;;;4982737;28;20128;-88
2022/08/10 06:43:48;;;;;;;10.60;7.65;;;18.20;99.90;;;;;;4987999;28;20054;-88
2022/08/10 06:46:19;;;;;;;;;;;18.30;99.90;;;;;;4988187;28;20050;-89
2022/08/10 06:48:58;;;;;;;10.18;6.65;;;18.30;99.90;;;;;;4984708;28;20271;-91
2022/08/10 06:51:30;;;;;;;9.00;6.85;;;18.40;99.90;;;;;;4990120;28;20046;-91
2022/08/10 06:54:00;;;;;;;10.93;7.20;;;18.50;99.90;;;;;;4986038;28;20057;-91
2022/08/10 06:56:33;;;;;;;12.13;7.30;;;18.60;99.90;;;;;;4974202;28;20113;-92
2022/08/10 06:59:09;;;;;;;10.43;7.38;;;18.70;99.90;;;;;;4989302;28;20049;-93
2022/08/10 07:01:38;;;;;;;10.52;7.55;;;18.80;99.90;;;;;;4974887;28;20325;-91
2022/08/10 07:04:22;;;;;;;9.55;6.32;;;18.90;99.90;;;;;;4987298;28;20052;-91
2022/08/10 07:06:49;;;;;;;9.20;6.72;;;19.00;99.90;;;;;;4985664;28;20054;-90
2022/08/10 07:09:16;;;;;;;10.13;6.60;;;19.10;99.90;;;;;;4988798;28;20100;-90
2022/08/10 07:11:44;;;;;;;9.57;5.82;;;19.10;99.90;;;;;;4971750;28;20147;-90
2022/08/10 07:14:12;;;;;;;9.40;6.38;;;19.20;99.90;;;;;;4987683;28;20054;-91
2022/08/10 07:16:43;;;;;;;10.00;5.43;;;19.30;99.90;;;;;;4970833;28;20387;-91
2022/08/10 07:19:10;;;;;;;9.00;5.38;;;19.40;99.90;;;;;;4986984;28;20042;-89
2022/08/10 07:21:38;;;;;;;9.18;5.18;;;19.60;99.90;;;;;;4970517;28;20050;-91
2022/08/10 07:24:08;;;;;;;7.07;4.68;;;19.60;99.90;;;;;;4986496;28;20053;-91
2022/08/10 07:26:36;;;;;;;9.80;4.95;;;19.70;99.90;;;;;;4969794;28;20169;-90
2022/08/10 07:29:04;;;;;;;7.40;4.38;;;19.80;99.90;;;;;;4986744;28;20519;-91
2022/08/10 07:31:31;;;;;;;8.18;4.50;;;19.90;99.90;;;;;;4986087;28;20603;-87
2022/08/10 07:33:58;;;;;;;8.25;4.72;;;19.90;99.90;;;;;;4986259;28;20050;-91
2022/08/10 07:36:26;;;;;;;7.80;4.93;;;20.00;99.90;;;;;;4970393;28;20562;-93
2022/08/10 07:38:54;;;;;;;7.63;4.28;;;20.00;99.90;;;;;;4984966;28;20271;-92
2022/08/10 07:41:22;;;;;;;7.38;4.55;;;20.10;99.90;;;;;;4987413;28;20141;-90
2022/08/10 07:43:50;;;;;;;7.72;4.22;;;20.10;99.90;;;;;;4969352;28;20052;-91
2022/08/10 07:46:18;;;;;;;8.20;4.30;;;20.30;99.90;;;;;;4985079;28;20050;-87
2022/08/10 07:48:47;;;;;;;8.38;4.22;;;20.20;99.90;;;;;;4986311;28;20509;-93
2022/08/10 07:51:17;;;;;;;7.70;4.13;;;20.30;99.90;;;;;;4992352;28;20042;-91
2022/08/10 07:53:49;;;;;;;9.45;4.32;;;20.40;99.90;;;;;;4982854;28;20050;-90
2022/08/10 07:56:20;;;;;;;7.55;4.30;;;20.40;99.90;;;;;;4985400;28;20046;-90
2022/08/10 07:58:49;;;;;;;7.57;4.10;;;20.50;99.90;;;;;;4985388;28;20054;-93
2022/08/10 08:01:16;;;;;;;6.97;4.28;;;20.50;99.90;;;;;;4968434;28;20305;-92
2022/08/10 08:03:44;;;;;;;7.95;4.40;;;20.70;99.90;;;;;;4970418;28;20117;-94
2022/08/10 08:06:12;;;;;;;8.10;4.10;;;20.70;99.90;;;;;;4969689;28;20406;-92
2022/08/10 08:08:40;;;;;;;8.48;4.50;;;20.70;99.90;;;;;;4986796;28;20057;-93
2022/08/10 08:11:07;;;;;;;8.55;4.47;;;20.80;99.90;;;;;;4964632;28;20487;-91
2022/08/10 08:13:34;;;;;;;8.60;4.47;;;20.90;99.90;;;;;;4969325;28;20050;-89
2022/08/10 08:16:03;;;;;;;8.43;4.10;;;20.80;99.90;;;;;;4967992;28;20089;-91
2022/08/10 08:18:30;;;;;;;8.98;4.40;;;20.80;99.90;;;;;;4985101;28;20042;-89
2022/08/10 08:20:57;;;;;;;8.75;4.82;;;20.90;99.90;;;;;;4968411;28;20153;-90
2022/08/10 08:23:26;;;;;;;10.63;4.22;;;20.90;99.90;;;;;;4987039;28;20065;-91
2022/08/10 08:25:53;;;;;;;7.57;3.90;;;20.90;99.90;;;;;;4985101;28;20051;-91
2022/08/10 08:28:19;;;;;;;9.00;4.00;;;21.00;99.90;;;;;;4986119;28;20054;-89
2022/08/10 08:30:46;;;;;;;7.80;4.00;;;21.10;99.90;;;;;;4985896;28;20399;-90
2022/08/10 08:33:14;;;;;;;6.90;3.80;;;21.10;99.90;;;;;;4984875;28;20964;-89
2022/08/10 08:35:41;;;;;;;8.10;4.13;;;21.30;99.90;;;;;;4969544;28;20046;-89
2022/08/10 08:38:08;;;;;;;9.45;3.83;;;21.30;99.90;;;;;;4967987;28;20045;-88
2022/08/10 08:40:38;;;;;;;8.52;4.05;;;21.30;99.90;;;;;;4985780;28;20042;-91
2022/08/10 08:43:42;;;;;;;7.72;3.72;;;21.40;99.90;;;;;;4985378;28;20057;-91
2022/08/10 08:46:42;;;;;;;8.23;3.70;;;21.50;99.90;;;;;;4985032;28;20046;-91
2022/08/10 08:49:46;;;;;;;7.18;3.70;;;21.50;99.90;;;;;;4986396;28;20105;-91
2022/08/10 08:52:11;;;;;;;6.75;3.45;;;21.60;99.90;;;;;;4948447;28;20054;-90
2022/08/10 08:55:05;;;;;;;6.60;3.40;;;21.70;99.90;;;;;;4949168;28;20062;-94
2022/08/10 08:57:55;;;;;;;9.90;3.40;;;21.70;99.90;;;;;;4947146;28;20090;-89
2022/08/10 09:00:36;;;;;;;7.72;3.22;;;21.80;99.90;;;;;;4964523;28;20424;-90
2022/08/10 09:03:20;;;;;;;;;;;21.90;99.90;;;;;;4946383;28;20055;-90
2022/08/10 09:06:14;;;;;;;7.85;3.03;;;21.90;99.90;;;;;;4951456;28;19945;-91
2022/08/10 09:09:08;;;;;;;6.13;2.92;;;22.10;99.90;;;;;;4951341;28;20043;-90
2022/08/10 09:12:07;;;;;;;7.28;3.00;;;22.20;99.90;;;;;;4933645;28;20047;-89
2022/08/10 09:14:57;;;;;;;5.88;2.90;;;22.20;99.90;;;;;;4947996;28;20061;-88
2022/08/10 09:17:41;;;;;;;8.45;2.95;;;22.30;99.90;;;;;;4968042;28;20043;-88
2022/08/10 09:20:25;;;;;;;6.10;3.03;;;22.30;99.90;;;;;;4967221;28;20484;-91
2022/08/10 09:23:15;;;;;;;5.97;2.78;;;22.40;99.90;;;;;;4965344;28;20042;-90
2022/08/10 09:25:51;;;;;;;8.63;2.85;;;22.40;99.90;;;;;;4960719;28;20436;-90
2022/08/10 09:28:25;;;;;;;6.68;2.85;;;22.60;99.90;;;;;;4986998;28;20150;-88
2022/08/10 09:31:06;;;;;;;9.63;3.00;;;22.70;99.90;;;;;;4989313;28;20054;-92
2022/08/10 09:33:57;;;;;;;6.45;3.20;;;22.70;99.90;;;;;;4989683;28;20054;-89
2022/08/10 09:36:22;;;;;;;5.57;2.67;;;22.70;99.90;;;;;;4987509;28;20046;-88
2022/08/10 09:39:06;;;;;;;7.78;2.60;;;22.80;99.90;;;;;;4988339;28;20056;-92
2022/08/10 09:41:38;;;;;;;6.55;2.60;;;22.80;99.90;;;;;;4971096;28;20050;-89
2022/08/10 09:44:13;;;;;;;5.40;2.70;;;22.90;99.90;;;;;;4971113;28;20054;-87
2022/08/10 09:47:18;;;;;;;9.80;2.83;;;23.00;99.90;;;;;;4988791;28;20065;-89
2022/08/10 09:50:01;;;;;;;6.55;2.83;;;23.00;99.90;;;;;;4987790;28;20092;-90
2022/08/10 09:52:50;;;;;;;8.15;2.95;;;23.00;99.90;;;;;;4989503;28;20105;-89
2022/08/10 09:55:45;;;;;;;7.30;2.70;;;23.00;99.90;;;;;;4988249;28;20573;-89
2022/08/10 09:58:48;;;;;;;6.90;3.03;;;23.20;99.90;;;;;;4980534;28;20064;-91
2022/08/10 10:01:19;;;;;;;8.18;2.60;;;23.20;99.90;;;;;;4984419;28;20042;-89
2022/08/10 10:03:58;;;;;;;7.10;2.70;;;23.20;99.90;;;;;;4987477;28;20606;-86
2022/08/10 10:06:34;;;;;;;6.70;2.45;;;23.20;99.90;;;;;;4988907;28;20038;-88
2022/08/10 10:09:22;;;;;;;6.95;2.60;;;23.30;99.90;;;;;;4970769;28;20128;-89
2022/08/10 10:12:19;;;;;;;4.93;2.40;;;23.40;99.90;;;;;;4984127;28;20141;-89
2022/08/10 10:15:19;;;;;;;5.88;2.90;;;23.40;99.90;;;;;;4986724;28;20089;-85
2022/08/10 10:18:16;;;;;;;5.38;2.35;;;23.40;99.90;;;;;;4986074;28;20038;-92
2022/08/10 10:21:07;;;;;;;5.38;2.40;;;23.50;99.90;;;;;;4986792;28;20045;-89
2022/08/10 10:23:58;;;;;;;6.47;2.72;;;23.60;99.90;;;;;;4988199;28;20046;-90
2022/08/10 10:26:27;;;;;;;5.35;2.10;;;23.70;99.90;;;;;;4970557;28;20046;-87
2022/08/10 10:29:04;;;;;;;5.47;2.08;;;23.70;99.90;;;;;;4985928;28;20038;-90
2022/08/10 10:31:38;;;;;;;6.13;2.10;;;23.60;99.90;;;;;;4987382;28;20073;-91
2022/08/10 10:34:16;;;;;;;6.43;2.30;;;23.80;99.90;;;;;;4986347;28;20046;-89
2022/08/10 10:36:44;;;;;;;5.32;2.20;;;23.90;99.90;;;;;;4971126;28;20042;-94
2022/08/10 10:39:13;;;;;;;5.10;2.20;;;23.90;99.90;;;;;;4985070;28;20050;-89
2022/08/10 10:41:44;;;;;;;7.47;2.60;;;24.00;99.90;;;;;;4986761;28;20049;-90
2022/08/10 10:44:29;;;;;;;5.78;2.13;;;24.00;99.90;;;;;;4988589;28;20050;-91
2022/08/10 10:47:22;;;;;;;6.00;2.00;;;24.10;99.90;;;;;;4988196;28;20458;-92
2022/08/10 10:50:17;;;;;;;4.75;1.98;;;24.10;99.90;;;;;;4983921;28;20137;-89
2022/08/10 10:52:55;;;;;;;5.35;2.20;;;24.10;99.90;;;;;;4984030;28;20058;-87
2022/08/10 10:55:33;;;;;;;3.97;1.92;;;24.20;99.90;;;;;;4986107;28;20062;-91
2022/08/10 10:58:21;;;;;;;4.85;1.80;;;24.20;99.90;;;;;;4986022;28;20406;-89
2022/08/10 11:01:04;;;;;;;9.07;2.00;;;24.20;99.90;;;;;;4967153;28;20058;-91
2022/08/10 11:03:52;;;;;;;5.70;2.17;;;24.20;99.90;;;;;;4982805;28;20096;-90
2022/08/10 11:06:36;;;;;;;7.70;2.03;;;24.30;99.90;;;;;;4986425;28;20083;-93
2022/08/10 11:09:10;;;;;;;3.67;1.65;;;24.30;99.90;;;;;;4985227;28;20073;-89
2022/08/10 11:11:39;;;;;;;3.80;1.80;;;24.50;99.90;;;;;;4967518;28;20042;-90
2022/08/10 11:14:08;;;;;;;3.92;1.50;;;24.40;99.90;;;;;;4969982;28;20054;-87
2022/08/10 11:17:29;;;;;;;3.80;1.48;;;24.50;99.90;;;;;;4966308;28;20403;-90
2022/08/10 11:20:16;;;;;;;3.17;1.60;;;24.50;99.90;;;;;;4964588;28;20365;-88
2022/08/10 11:22:51;;;;;;;4.47;1.45;;;24.50;99.90;;;;;;4946688;28;20051;-88
2022/08/10 11:25:29;;;;;;;4.22;1.80;;;24.60;99.90;;;;;;4960408;28;20047;-90
2022/08/10 11:28:07;;;;;;;3.80;1.70;;;24.70;99.90;;;;;;4952891;28;20079;-90
2022/08/10 11:30:39;;;;;;;4.10;1.50;;;24.80;99.80;;;;;;4949096;28;20058;-91
2022/08/10 11:33:27;;;;;;;3.78;1.50;;;24.80;98.60;;;;;;4947564;28;20391;-88
2022/08/10 11:35:59;;;;;;;2.45;1.60;;;24.90;99.90;;;;;;4947734;28;20566;-90
2022/08/10 11:38:33;;;;;;;3.95;1.48;;;24.80;99.30;;;;;;4964439;28;20063;-93
2022/08/10 11:41:09;;;;;;;4.82;1.73;;;24.90;99.80;;;;;;4944107;28;20058;-90
2022/08/10 11:43:44;;;;;;;3.85;1.55;;;24.90;99.20;;;;;;4965192;28;20047;-91
2022/08/10 11:46:30;;;;;;;4.30;1.55;;;24.90;98.80;;;;;;4949298;28;20448;-88
2022/08/10 11:49:08;;;;;;;3.72;1.50;;;24.90;99.00;;;;;;4946995;28;20125;-85
2022/08/10 11:51:52;;;;;;;3.70;1.67;;;25.00;98.80;;;;;;4985209;28;20097;-91
2022/08/10 11:54:35;;;;;;;3.60;1.60;;;25.00;97.40;;;;;;4966570;28;20073;-87
2022/08/10 11:57:01;;;;;;;3.95;1.35;;;25.10;98.50;;;;;;4985581;28;20145;-91
2022/08/10 12:02:20;;;;;;;4.57;1.77;;;25.20;96.90;;;;;;4985404;28;20133;-89
2022/08/10 12:04:51;;;;;;;4.53;1.58;;;25.30;96.50;;;;;;4969037;28;20053;-91
2022/08/10 12:07:20;;;;;;;3.90;1.48;;;25.30;95.40;;;;;;4985186;28;20042;-88
2022/08/10 12:09:47;;;;;;;3.47;1.40;;;25.30;96.70;;;;;;4985401;28;20049;-88
2022/08/10 12:12:15;;;;;;;3.92;1.60;;;25.30;96.80;;;;;;4970284;28;20137;-93
2022/08/10 12:15:01;;;;;;;4.30;1.80;;;25.30;97.10;;;;;;4969418;28;20053;-88
2022/08/10 12:17:48;;;;;;;5.00;1.60;;;25.30;96.10;;;;;;4983363;28;20068;-89
2022/08/10 12:20:26;;;;;;;3.95;1.60;;;25.40;95.30;;;;;;4985961;28;20046;-93
2022/08/10 12:23:10;;;;;;;4.13;1.60;;;25.50;95.20;;;;;;4985040;28;20045;-88
2022/08/10 12:25:53;;;;;;;4.00;1.70;;;25.50;95.00;;;;;;4985863;28;20046;-88
2022/08/10 12:28:35;;;;;;;5.22;1.55;;;25.50;95.20;;;;;;4982190;28;20058;-89
2022/08/10 12:31:05;;;;;;;6.38;2.15;;;25.50;94.00;;;;;;4967825;28;20408;-88
2022/08/10 12:33:37;;;;;;;4.03;1.40;;;25.50;93.40;;;;;;4969721;28;20046;-89
2022/08/10 12:36:14;;;;;;;3.75;1.45;;;25.50;93.50;;;;;;4986034;28;20119;-90
2022/08/10 12:39:20;;;;;;;5.70;1.80;;;25.60;93.40;;;;;;4969704;28;20093;-91
2022/08/10 12:42:14;;;;;;;4.70;1.95;;;25.60;94.00;;;;;;4970686;28;20038;-88
2022/08/10 12:44:53;;;;;;;6.53;2.05;;;25.60;94.90;;;;;;4991268;28;20039;-86
2022/08/10 12:47:46;;;;;;;4.50;1.70;;;25.60;95.00;;;;;;4993372;28;20074;-92
2022/08/10 12:50:20;;;;;;;3.95;1.60;;;25.60;95.60;;;;;;4975702;28;20047;-90
2022/08/10 12:52:56;;;;;;;5.55;1.95;;;25.50;96.10;;;;;;4991629;28;20399;-90
2022/08/10 12:55:23;;;;;;;4.40;1.80;;;25.60;95.30;;;;;;4987970;28;20046;-87
2022/08/10 12:57:53;;;;;;;3.30;1.70;;;25.60;95.20;;;;;;4988926;28;20153;-91
2022/08/10 13:00:25;;;;;;;3.90;1.53;;;25.70;93.80;;;;;;4990156;28;20057;-91
2022/08/10 13:02:51;;;;;;;4.10;1.52;;;25.80;93.40;;;;;;4967959;28;20328;-88
2022/08/10 13:05:17;;;;;;;4.53;1.60;;;25.80;93.70;;;;;;4988375;28;20047;-90
2022/08/10 13:07:45;;;;;;;4.25;1.50;;;25.80;94.20;;;;;;4987975;28;20510;-88
2022/08/10 13:10:14;;;;;;;3.90;1.45;;;25.90;92.60;;;;;;4988360;28;20046;-90
2022/08/10 13:12:47;;;;;;;4.05;1.58;;;25.90;91.90;;;;;;4988367;28;20046;-88
2022/08/10 13:15:21;;;;;;;3.28;1.50;;;25.90;92.20;;;;;;4988304;28;20414;-90
2022/08/10 13:17:48;;;;;;;4.78;1.40;;;25.90;90.90;;;;;;4988250;28;20057;-87